Time;durP1;ratioP1;P1;durP2;ratioP2;P2;SDS_P1;SDS_P2;PMS_P1;PMS_P2;Temp;Humidity;BMP_temperature;BMP_pressure;BME280_temperature;BME280_humidity;BME280_pressure;Samples;Min_cycle;Max_cycle;Signal;HPM_P1;HPM_P2
2022/03/01 00:01:12;;;;;;;;;;;;;;;;;;5016210;28;19914;-52
2022/03/01 00:03:38;;;;;;;;;;;;;;;;;;5035274;28;19923;-52
2022/03/01 00:06:03;;;;;;;;;;;;;;;;;;5016457;28;19916;-53
2022/03/01 00:08:28;;;;;;;;;;;;;;;;;;5013869;28;19910;-50
2022/03/01 00:10:53;;;;;;;;;;;;;;;;;;5016542;28;19928;-53
2022/03/01 00:13:18;;;;;;;;;;;;;;;;;;5016008;28;19910;-54
2022/03/01 00:15:43;;;;;;;;;;;;;;;;;;5018187;28;20540;-51
2022/03/01 00:18:08;;;;;;;;;;;;;;;;;;5018561;28;19919;-53
2022/03/01 00:20:34;;;;;;;;;;;;;;;;;;5016475;28;19935;-50
2022/03/01 00:22:59;;;;;;;;;;;;;;;;;;5015240;28;19960;-52
2022/03/01 00:25:24;;;;;;;;;;;;;;;;;;5017435;28;19914;-51
2022/03/01 00:27:49;;;;;;;;;;;;;;;;;;5016833;28;20068;-52
2022/03/01 00:30:14;;;;;;;;;;;;;;;;;;5019211;28;19956;-52
2022/03/01 00:32:39;;;;;;;;;;;;;;;;;;5015117;28;20387;-52
2022/03/01 00:35:04;;;;;;;;;;;;;;;;;;5015903;28;19910;-52
2022/03/01 00:37:30;;;;;;;;;;;;;;;;;;5018678;28;19944;-52
2022/03/01 00:39:55;;;;;;;;;;;;;;;;;;5011972;28;20335;-48
2022/03/01 00:42:20;;;;;;;;;;;;;;;;;;5015324;28;19967;-53
2022/03/01 00:44:45;;;;;;;;;;;;;;;;;;5015636;28;19957;-51
2022/03/01 00:47:10;;;;;;;;;;;;;;;;;;5017476;28;20319;-51
2022/03/01 00:49:35;;;;;;;;;;;;;;;;;;5011950;28;20328;-53
2022/03/01 00:52:00;;;;;;;;;;;;;;;;;;5015088;28;19926;-53
2022/03/01 00:54:26;;;;;;;;;;;;;;;;;;5018119;28;19913;-52
2022/03/01 00:56:51;;;;;;;;;;;;;;;;;;5015619;28;19913;-53
2022/03/01 00:59:16;;;;;;;;;;;;;;;;;;5015544;28;19919;-55
2022/03/01 01:01:41;;;;;;;;;;;;;;;;;;5016454;28;20112;-49
2022/03/01 01:04:06;;;;;;;;;;;;;;;;;;5014533;28;19921;-49
2022/03/01 01:06:32;;;;;;;;;;;;;;;;;;5015117;28;19992;-52
2022/03/01 01:08:57;;;;;;;;;;;;;;;;;;5016703;28;20245;-52
2022/03/01 01:11:22;;;;;;;;;;;;;;;;;;5019696;28;19909;-50
2022/03/01 01:13:47;;;;;;;;;;;;;;;;;;5019923;28;19917;-51
2022/03/01 01:16:12;;;;;;;;;;;;;;;;;;5035060;28;20377;-54
2022/03/01 01:18:43;;;;;;;;;;;;;;;;;;5019551;28;19913;-51
2022/03/01 01:21:08;;;;;;;;;;;;;;;;;;5019806;28;20016;-53
2022/03/01 01:23:33;;;;;;;;;;;;;;;;;;5018358;28;20062;-55
2022/03/01 01:25:58;;;;;;;;;;;;;;;;;;5021224;28;20012;-55
2022/03/01 01:28:23;;;;;;;;;;;;;;;;;;5019879;28;19913;-54
2022/03/01 01:30:48;;;;;;;;;;;;;;;;;;5018242;28;19916;-49
2022/03/01 01:33:14;;;;;;;;;;;;;;;;;;5019098;28;19913;-53
2022/03/01 01:35:39;;;;;;;;;;;;;;;;;;5016979;28;19982;-52
2022/03/01 01:38:04;;;;;;;;;;;;;;;;;;5016661;28;20265;-51
2022/03/01 01:40:29;;;;;;;;;;;;;;;;;;5019801;28;19913;-55
2022/03/01 01:42:54;;;;;;;;;;;;;;;;;;5024010;28;20344;-52
2022/03/01 01:45:19;;;;;;;;;;;;;;;;;;5017450;28;19995;-52
2022/03/01 01:47:45;;;;;;;;;;;;;;;;;;5013282;28;19980;-52
2022/03/01 01:50:10;;;;;;;;;;;;;;;;;;5016451;28;19928;-52
2022/03/01 01:52:35;;;;;;;;;;;;;;;;;;5017807;28;20016;-51
2022/03/01 01:55:00;;;;;;;;;;;;;;;;;;5016215;28;19915;-54
2022/03/01 01:57:25;;;;;;;;;;;;;;;;;;5018142;28;19915;-53
2022/03/01 01:59:50;;;;;;;;;;;;;;;;;;5018075;28;20834;-51
2022/03/01 02:02:16;;;;;;;;;;;;;;;;;;5018174;28;19933;-53
2022/03/01 02:04:41;;;;;;;;;;;;;;;;;;5017882;28;20434;-52
2022/03/01 02:07:06;;;;;;;;;;;;;;;;;;5016811;28;19921;-53
2022/03/01 02:09:31;;;;;;;;;;;;;;;;;;5019990;28;20000;-55
2022/03/01 02:11:56;;;;;;;;;;;;;;;;;;5017349;28;19972;-52
2022/03/01 02:14:21;;;;;;;;;;;;;;;;;;5020211;28;20285;-49
2022/03/01 02:16:47;;;;;;;;;;;;;;;;;;5017384;28;20502;-48
2022/03/01 02:19:12;;;;;;;;;;;;;;;;;;5017301;28;19913;-52
2022/03/01 02:21:37;;;;;;;;;;;;;;;;;;5016973;28;19988;-53
2022/03/01 02:24:02;;;;;;;;;;;;;;;;;;5016693;28;19918;-52
2022/03/01 02:26:27;;;;;;;;;;;;;;;;;;5018836;28;19936;-49
2022/03/01 02:28:52;;;;;;;;;;;;;;;;;;5019037;28;20265;-51
2022/03/01 02:31:17;;;;;;;;;;;;;;;;;;5017189;28;19917;-51
2022/03/01 02:33:43;;;;;;;;;;;;;;;;;;5018025;28;20423;-50
2022/03/01 02:36:08;;;;;;;;;;;;;;;;;;5018976;28;19913;-48
2022/03/01 02:38:33;;;;;;;;;;;;;;;;;;5022013;28;19909;-49
2022/03/01 02:40:58;;;;;;;;;;;;;;;;;;5017986;28;20402;-49
2022/03/01 02:43:23;;;;;;;;;;;;;;;;;;5019895;28;19917;-52
2022/03/01 02:45:48;;;;;;;;;;;;;;;;;;5019400;28;19948;-49
2022/03/01 02:48:13;;;;;;;;;;;;;;;;;;5017640;28;20353;-48
2022/03/01 02:50:39;;;;;;;;;;;;;;;;;;5016356;28;19931;-50
2022/03/01 02:53:04;;;;;;;;;;;;;;;;;;5020231;28;19933;-48
2022/03/01 02:55:29;;;;;;;;;;;;;;;;;;5017153;28;20361;-48
2022/03/01 02:57:54;;;;;;;;;;;;;;;;;;5017673;28;19967;-49
2022/03/01 03:00:19;;;;;;;;;;;;;;;;;;5021245;28;20272;-53
2022/03/01 03:02:44;;;;;;;;;;;;;;;;;;5020981;28;20000;-51
2022/03/01 03:05:09;;;;;;;;;;;;;;;;;;5015497;28;19917;-51
2022/03/01 03:07:35;;;;;;;;;;;;;;;;;;5014142;28;20000;-51
2022/03/01 03:10:00;;;;;;;;;;;;;;;;;;5018581;28;19936;-51
2022/03/01 03:12:26;;;;;;;;;;;;;;;;;;5017822;28;20612;-49
2022/03/01 03:14:51;;;;;;;;;;;;;;;;;;5015657;28;20333;-51
2022/03/01 03:17:16;;;;;;;;;;;;;;;;;;5016492;28;19967;-55
2022/03/01 03:19:41;;;;;;;;;;;;;;;;;;5015817;28;19913;-51
2022/03/01 03:22:06;;;;;;;;;;;;;;;;;;5017850;28;19943;-54
2022/03/01 03:24:32;;;;;;;;;;;;;;;;;;5015695;28;19936;-53
2022/03/01 03:26:57;;;;;;;;;;;;;;;;;;5015331;28;20428;-49
2022/03/01 03:29:22;;;;;;;;;;;;;;;;;;5018932;28;19953;-51
2022/03/01 03:31:47;;;;;;;;;;;;;;;;;;5016398;28;19964;-52
2022/03/01 03:34:12;;;;;;;;;;;;;;;;;;5017019;28;19917;-56
2022/03/01 03:36:37;;;;;;;;;;;;;;;;;;5014995;28;20007;-53
2022/03/01 03:39:03;;;;;;;;;;;;;;;;;;5017716;28;19967;-51
2022/03/01 03:41:28;;;;;;;;;;;;;;;;;;5015380;28;19988;-52
2022/03/01 03:43:53;;;;;;;;;;;;;;;;;;5017779;28;20276;-53
2022/03/01 03:46:18;;;;;;;;;;;;;;;;;;5018081;28;20395;-53
2022/03/01 03:48:43;;;;;;;;;;;;;;;;;;5018817;28;20053;-52
2022/03/01 03:51:08;;;;;;;;;;;;;;;;;;5013566;28;20633;-51
2022/03/01 03:53:34;;;;;;;;;;;;;;;;;;5014279;28;19968;-53
2022/03/01 03:55:59;;;;;;;;;;;;;;;;;;5013282;28;19946;-52
2022/03/01 03:58:24;;;;;;;;;;;;;;;;;;5016648;28;20329;-51
2022/03/01 04:00:49;;;;;;;;;;;;;;;;;;5017303;28;19913;-53
2022/03/01 04:03:14;;;;;;;;;;;;;;;;;;5017095;28;19987;-51
2022/03/01 04:05:39;;;;;;;;;;;;;;;;;;5016746;28;19913;-50
2022/03/01 04:08:04;;;;;;;;;;;;;;;;;;5013852;28;20351;-50
2022/03/01 04:10:30;;;;;;;;;;;;;;;;;;5014080;28;19913;-49
2022/03/01 04:12:55;;;;;;;;;;;;;;;;;;5014429;28;19914;-52
2022/03/01 04:15:20;;;;;;;;;;;;;;;;;;5016352;28;19913;-52
2022/03/01 04:17:45;;;;;;;;;;;;;;;;;;5017016;28;20418;-48
2022/03/01 04:20:10;;;;;;;;;;;;;;;;;;5017556;28;19979;-49
2022/03/01 04:22:36;;;;;;;;;;;;;;;;;;5018375;28;19913;-52
2022/03/01 04:25:01;;;;;;;;;;;;;;;;;;5015743;28;20408;-51
2022/03/01 04:27:26;;;;;;;;;;;;;;;;;;5017263;28;19921;-52
2022/03/01 04:29:52;;;;;;;;;;;;;;;;;;5015707;28;20648;-51
2022/03/01 04:32:17;;;;;;;;;;;;;;;;;;5015910;28;19936;-48
2022/03/01 04:34:42;;;;;;;;;;;;;;;;;;5015998;28;19976;-50
2022/03/01 04:37:07;;;;;;;;;;;;;;;;;;5016780;28;19914;-51
2022/03/01 04:39:32;;;;;;;;;;;;;;;;;;5017169;28;19913;-51
2022/03/01 04:41:58;;;;;;;;;;;;;;;;;;5016734;28;19917;-50
2022/03/01 04:44:23;;;;;;;;;;;;;;;;;;5018015;28;19910;-49
2022/03/01 04:46:48;;;;;;;;;;;;;;;;;;5022695;28;19951;-49
2022/03/01 04:49:13;;;;;;;;;;;;;;;;;;5019221;28;20401;-51
2022/03/01 04:51:38;;;;;;;;;;;;;;;;;;5021567;28;19926;-49
2022/03/01 04:54:03;;;;;;;;;;;;;;;;;;5019575;28;19913;-49
2022/03/01 04:56:28;;;;;;;;;;;;;;;;;;5032882;28;20373;-54
2022/03/01 04:58:54;;;;;;;;;;;;;;;;;;5019552;28;19913;-54
2022/03/01 05:01:19;;;;;;;;;;;;;;;;;;5020785;28;19917;-48
2022/03/01 05:03:44;;;;;;;;;;;;;;;;;;5019816;28;19917;-52
2022/03/01 05:06:09;;;;;;;;;;;;;;;;;;5018925;28;19976;-52
2022/03/01 05:08:34;;;;;;;;;;;;;;;;;;5016218;28;19968;-49
2022/03/01 05:10:59;;;;;;;;;;;;;;;;;;5016852;28;20308;-52
2022/03/01 05:13:25;;;;;;;;;;;;;;;;;;5036019;28;20020;-54
2022/03/01 05:15:50;;;;;;;;;;;;;;;;;;5018708;28;20019;-53
2022/03/01 05:18:15;;;;;;;;;;;;;;;;;;5017014;28;19914;-51
2022/03/01 05:20:40;;;;;;;;;;;;;;;;;;5017982;28;20360;-52
2022/03/01 05:23:05;;;;;;;;;;;;;;;;;;5022048;28;19924;-53
2022/03/01 05:25:30;;;;;;;;;;;;;;;;;;5018753;28;19937;-51
2022/03/01 05:27:55;;;;;;;;;;;;;;;;;;5020079;28;19913;-50
2022/03/01 05:30:21;;;;;;;;;;;;;;;;;;5019181;28;19917;-52
2022/03/01 05:32:46;;;;;;;;;;;;;;;;;;5019418;28;19922;-52
2022/03/01 05:35:13;;;;;;;;;;;;;;;;;;5014895;28;19967;-49
2022/03/01 05:37:38;;;;;;;;;;;;;;;;;;5017208;28;19935;-53
2022/03/01 05:40:03;;;;;;;;;;;;;;;;;;5023427;28;20368;-53
2022/03/01 05:42:28;;;;;;;;;;;;;;;;;;5016567;28;20054;-50
2022/03/01 05:44:55;;;;;;;;;;;;;;;;;;5021967;28;19916;-50
2022/03/01 05:47:21;;;;;;;;;;;;;;;;;;5017808;28;19940;-49
2022/03/01 05:49:46;;;;;;;;;;;;;;;;;;5020139;28;20461;-52
2022/03/01 05:52:11;;;;;;;;;;;;;;;;;;5016545;28;20460;-50
2022/03/01 05:54:38;;;;;;;;;;;;;;;;;;5011300;28;21330;-51
2022/03/01 05:57:03;;;;;;;;;;;;;;;;;;5016905;28;19920;-52
2022/03/01 05:59:28;;;;;;;;;;;;;;;;;;5019598;28;20361;-53
2022/03/01 06:01:53;;;;;;;;;;;;;;;;;;5019174;28;19971;-55
2022/03/01 06:04:19;;;;;;;;;;;;;;;;;;5017263;28;19965;-53
2022/03/01 06:06:44;;;;;;;;;;;;;;;;;;5017459;28;19917;-54
2022/03/01 06:09:09;;;;;;;;;;;;;;;;;;5016695;28;19913;-52
2022/03/01 06:11:34;;;;;;;;;;;;;;;;;;5016808;28;20373;-54
2022/03/01 06:13:59;;;;;;;;;;;;;;;;;;5018017;28;19925;-50
2022/03/01 06:16:24;;;;;;;;;;;;;;;;;;5019596;28;19952;-49
2022/03/01 06:18:50;;;;;;;;;;;;;;;;;;5018153;28;20350;-55
2022/03/01 06:21:15;;;;;;;;;;;;;;;;;;5017385;28;19914;-51
2022/03/01 06:23:40;;;;;;;;;;;;;;;;;;5016777;28;19925;-49
2022/03/01 06:26:05;;;;;;;;;;;;;;;;;;5021281;28;20615;-51
2022/03/01 06:28:30;;;;;;;;;;;;;;;;;;5020161;28;19996;-52
2022/03/01 06:30:55;;;;;;;;;;;;;;;;;;5016520;28;19913;-53
2022/03/01 06:33:20;;;;;;;;;;;;;;;;;;5018141;28;20392;-49
2022/03/01 06:35:46;;;;;;;;;;;;;;;;;;5020778;28;19914;-51
2022/03/01 06:38:11;;;;;;;;;;;;;;;;;;5020121;28;19945;-54
2022/03/01 06:40:36;;;;;;;;;;;;;;;;;;5017841;28;19968;-53
2022/03/01 06:43:01;;;;;;;;;;;;;;;;;;5015205;28;20335;-52
2022/03/01 06:45:26;;;;;;;;;;;;;;;;;;5017069;28;19916;-52
2022/03/01 06:47:51;;;;;;;;;;;;;;;;;;5017779;28;19964;-51
2022/03/01 06:50:17;;;;;;;;;;;;;;;;;;5017319;28;19950;-48
2022/03/01 06:52:42;;;;;;;;;;;;;;;;;;5014695;28;19913;-48
2022/03/01 06:55:07;;;;;;;;;;;;;;;;;;5017977;28;19909;-53
2022/03/01 06:57:32;;;;;;;;;;;;;;;;;;5019603;28;19913;-50
2022/03/01 06:59:57;;;;;;;;;;;;;;;;;;5020241;28;19921;-51
2022/03/01 07:02:25;;;;;;;;;;;;;;;;;;5017708;28;19914;-49
2022/03/01 07:04:50;;;;;;;;;;;;;;;;;;5015326;28;20083;-48
2022/03/01 07:07:15;;;;;;;;;;;;;;;;;;5016983;28;20007;-49
2022/03/01 07:09:40;;;;;;;;;;;;;;;;;;5015122;28;20031;-51
2022/03/01 07:12:06;;;;;;;;;;;;;;;;;;5016354;28;19914;-52
2022/03/01 07:14:31;;;;;;;;;;;;;;;;;;5018429;28;20616;-52
2022/03/01 07:16:56;;;;;;;;;;;;;;;;;;5017944;28;19913;-52
2022/03/01 07:19:21;;;;;;;;;;;;;;;;;;5017319;28;19920;-51
2022/03/01 07:21:46;;;;;;;;;;;;;;;;;;5017407;28;20619;-51
2022/03/01 07:24:11;;;;;;;;;;;;;;;;;;5018690;28;19921;-49
2022/03/01 07:26:36;;;;;;;;;;;;;;;;;;5031307;28;19913;-52
2022/03/01 07:29:02;;;;;;;;;;;;;;;;;;5013422;28;20341;-48
2022/03/01 07:31:27;;;;;;;;;;;;;;;;;;5016422;28;19909;-44
2022/03/01 07:33:52;;;;;;;;;;;;;;;;;;5013145;28;20360;-45
2022/03/01 07:36:17;;;;;;;;;;;;;;;;;;5017202;28;19924;-42
2022/03/01 07:38:42;;;;;;;;;;;;;;;;;;5014925;28;20112;-47
2022/03/01 07:41:07;;;;;;;;;;;;;;;;;;5018079;28;19925;-43
2022/03/01 07:43:33;;;;;;;;;;;;;;;;;;5015478;28;19917;-44
2022/03/01 07:45:58;;;;;;;;;;;;;;;;;;5017306;28;19957;-40
2022/03/01 07:48:23;;;;;;;;;;;;;;;;;;5016044;28;20143;-42
2022/03/01 07:50:48;;;;;;;;;;;;;;;;;;5016849;28;20403;-42
2022/03/01 07:53:13;;;;;;;;;;;;;;;;;;5015179;28;19985;-44
2022/03/01 07:55:38;;;;;;;;;;;;;;;;;;5017367;28;19963;-43
2022/03/01 07:58:03;;;;;;;;;;;;;;;;;;5016537;28;20470;-44
2022/03/01 08:00:29;;;;;;;;;;;;;;;;;;5016827;28;19918;-44
2022/03/01 08:02:54;;;;;;;;;;;;;;;;;;5017032;28;19924;-42
2022/03/01 08:05:19;;;;;;;;;;;;;;;;;;5015807;28;19974;-41
2022/03/01 08:07:44;;;;;;;;;;;;;;;;;;5015867;28;19913;-44
2022/03/01 08:10:09;;;;;;;;;;;;;;;;;;5016705;28;20015;-45
2022/03/01 08:12:34;;;;;;;;;;;;;;;;;;5015704;28;19909;-41
2022/03/01 08:15:00;;;;;;;;;;;;;;;;;;5013601;28;20024;-42
2022/03/01 08:17:25;;;;;;;;;;;;;;;;;;5015181;28;19910;-45
2022/03/01 08:19:50;;;;;;;;;;;;;;;;;;5015424;28;19913;-41
2022/03/01 08:22:15;;;;;;;;;;;;;;;;;;5018275;28;19917;-42
2022/03/01 08:24:40;;;;;;;;;;;;;;;;;;5017260;28;20441;-46
2022/03/01 08:27:05;;;;;;;;;;;;;;;;;;5016521;28;20015;-44
2022/03/01 08:29:30;;;;;;;;;;;;;;;;;;5013916;28;19928;-42
2022/03/01 08:31:56;;;;;;;;;;;;;;;;;;5017395;28;20305;-43
2022/03/01 08:34:21;;;;;;;;;;;;;;;;;;5014914;28;19956;-43
2022/03/01 08:36:46;;;;;;;;;;;;;;;;;;5012976;28;19920;-48
2022/03/01 08:39:11;;;;;;;;;;;;;;;;;;5018751;28;20430;-46
2022/03/01 08:41:36;;;;;;;;;;;;;;;;;;5013594;28;20356;-47
2022/03/01 08:44:01;;;;;;;;;;;;;;;;;;5016836;28;19920;-43
2022/03/01 08:46:27;;;;;;;;;;;;;;;;;;5014993;28;20483;-48
2022/03/01 08:48:55;;;;;;;;;;;;;;;;;;5014686;28;19920;-46
2022/03/01 08:51:21;;;;;;;;;;;;;;;;;;5015429;28;19960;-47
2022/03/01 08:53:46;;;;;;;;;;;;;;;;;;5014492;28;19961;-47
2022/03/01 08:56:14;;;;;;;;;;;;;;;;;;5015463;28;19920;-43
2022/03/01 08:58:39;;;;;;;;;;;;;;;;;;5014590;28;19921;-50
2022/03/01 09:01:04;;;;;;;;;;;;;;;;;;5013308;28;19982;-45
2022/03/01 09:03:30;;;;;;;;;;;;;;;;;;5018750;28;19918;-50
2022/03/01 09:05:55;;;;;;;;;;;;;;;;;;5014535;28;19956;-47
2022/03/01 09:08:20;;;;;;;;;;;;;;;;;;5014535;28;20568;-50
2022/03/01 09:10:45;;;;;;;;;;;;;;;;;;5017609;28;19928;-48
2022/03/01 09:13:10;;;;;;;;;;;;;;;;;;5019521;28;19910;-48
2022/03/01 09:15:35;;;;;;;;;;;;;;;;;;5020897;28;19932;-47
2022/03/01 09:18:01;;;;;;;;;;;;;;;;;;5015609;28;20657;-50
2022/03/01 09:20:27;;;;;;;;;;;;;;;;;;5021593;28;19917;-46
2022/03/01 09:22:52;;;;;;;;;;;;;;;;;;5016834;28;20077;-46
2022/03/01 09:25:17;;;;;;;;;;;;;;;;;;5017286;28;20679;-46
2022/03/01 09:27:43;;;;;;;;;;;;;;;;;;5018237;28;20247;-47
2022/03/01 09:30:08;;;;;;;;;;;;;;;;;;5018374;28;20003;-46
2022/03/01 09:32:33;;;;;;;;;;;;;;;;;;5022505;28;20047;-44
2022/03/01 09:34:58;;;;;;;;;;;;;;;;;;5017242;28;19936;-44
2022/03/01 09:37:23;;;;;;;;;;;;;;;;;;5017694;28;19917;-48
2022/03/01 09:39:48;;;;;;;;;;;;;;;;;;5015434;28;20702;-44
2022/03/01 09:42:14;;;;;;;;;;;;;;;;;;5017786;28;20424;-49
2022/03/01 09:44:39;;;;;;;;;;;;;;;;;;5018559;28;19909;-51
2022/03/01 09:47:04;;;;;;;;;;;;;;;;;;5020667;28;19920;-51
2022/03/01 09:49:29;;;;;;;;;;;;;;;;;;5018094;28;20008;-53
2022/03/01 09:51:54;;;;;;;;;;;;;;;;;;5017948;28;19933;-51
2022/03/01 09:54:20;;;;;;;;;;;;;;;;;;5016565;28;20004;-46
2022/03/01 09:56:45;;;;;;;;;;;;;;;;;;5020469;28;19914;-50
2022/03/01 09:59:10;;;;;;;;;;;;;;;;;;5019505;28;19920;-47
2022/03/01 10:01:35;;;;;;;;;;;;;;;;;;5021119;28;19952;-48
2022/03/01 10:04:00;;;;;;;;;;;;;;;;;;5018302;28;19967;-44
2022/03/01 10:06:27;;;;;;;;;;;;;;;;;;5016492;28;19909;-46
2022/03/01 10:08:52;;;;;;;;;;;;;;;;;;5016525;28;20616;-48
2022/03/01 10:11:18;;;;;;;;;;;;;;;;;;5016190;28;19917;-49
2022/03/01 10:13:44;;;;;;;;;;;;;;;;;;5017947;28;19909;-50
2022/03/01 10:16:09;;;;;;;;;;;;;;;;;;5021169;28;20714;-46
2022/03/01 10:18:34;;;;;;;;;;;;;;;;;;5016084;28;19909;-45
2022/03/01 10:20:59;;;;;;;;;;;;;;;;;;5015092;28;20364;-48
2022/03/01 10:23:24;;;;;;;;;;;;;;;;;;5023490;28;19918;-44
2022/03/01 10:25:50;;;;;;;;;;;;;;;;;;5015738;28;20028;-44
2022/03/01 10:28:15;;;;;;;;;;;;;;;;;;5021113;28;20280;-45
2022/03/01 10:30:41;;;;;;;;;;;;;;;;;;5016279;28;20395;-44
2022/03/01 10:33:06;;;;;;;;;;;;;;;;;;5019753;28;19924;-44
2022/03/01 10:35:31;;;;;;;;;;;;;;;;;;5022819;28;19917;-45
2022/03/01 10:37:57;;;;;;;;;;;;;;;;;;5020990;28;19913;-45
2022/03/01 10:40:22;;;;;;;;;;;;;;;;;;5009398;28;19917;-47
2022/03/01 10:42:47;;;;;;;;;;;;;;;;;;5018173;28;20003;-46
2022/03/01 10:45:15;;;;;;;;;;;;;;;;;;5012366;28;20576;-44
2022/03/01 10:47:40;;;;;;;;;;;;;;;;;;5013509;28;19918;-47
2022/03/01 10:50:05;;;;;;;;;;;;;;;;;;5012297;28;20004;-46
2022/03/01 10:52:31;;;;;;;;;;;;;;;;;;5012825;28;19921;-46
2022/03/01 10:54:56;;;;;;;;;;;;;;;;;;5011165;28;19913;-49
2022/03/01 10:57:21;;;;;;;;;;;;;;;;;;5011439;28;19920;-44
2022/03/01 10:59:46;;;;;;;;;;;;;;;;;;5013142;28;19917;-47
2022/03/01 11:02:11;;;;;;;;;;;;;;;;;;5011451;28;19918;-47
2022/03/01 11:04:36;;;;;;;;;;;;;;;;;;5016274;28;19917;-45
2022/03/01 11:07:01;;;;;;;;;;;;;;;;;;5013048;28;19918;-48
2022/03/01 11:09:27;;;;;;;;;;;;;;;;;;5011330;28;19913;-47
2022/03/01 11:11:52;;;;;;;;;;;;;;;;;;5013998;28;20442;-51
2022/03/01 11:14:17;;;;;;;;;;;;;;;;;;5012841;28;19983;-49
2022/03/01 11:16:42;;;;;;;;;;;;;;;;;;5014122;28;19917;-49
2022/03/01 11:19:07;;;;;;;;;;;;;;;;;;5010013;28;20150;-48
2022/03/01 11:21:33;;;;;;;;;;;;;;;;;;5014216;28;20380;-48
2022/03/01 11:23:58;;;;;;;;;;;;;;;;;;5011535;28;20410;-48
2022/03/01 11:26:23;;;;;;;;;;;;;;;;;;5014605;28;19921;-47
2022/03/01 11:28:48;;;;;;;;;;;;;;;;;;5013182;28;20387;-49
2022/03/01 11:31:13;;;;;;;;;;;;;;;;;;5010406;28;20003;-47
2022/03/01 11:33:39;;;;;;;;;;;;;;;;;;5009920;28;19917;-45
2022/03/01 11:36:04;;;;;;;;;;;;;;;;;;5010554;28;19991;-47
2022/03/01 11:38:29;;;;;;;;;;;;;;;;;;5009925;28;19913;-47
2022/03/01 11:41:00;;;;;;;;;;;;;;;;;;5012096;28;20059;-48
2022/03/01 11:43:26;;;;;;;;;;;;;;;;;;5012304;28;19925;-47
2022/03/01 11:45:51;;;;;;;;;;;;;;;;;;5013891;28;20455;-49
2022/03/01 11:48:16;;;;;;;;;;;;;;;;;;5012441;28;19913;-49
2022/03/01 11:50:41;;;;;;;;;;;;;;;;;;5012419;28;20456;-47
2022/03/01 11:53:06;;;;;;;;;;;;;;;;;;5011219;28;19917;-48
2022/03/01 11:55:31;;;;;;;;;;;;;;;;;;5016937;28;20352;-47
2022/03/01 11:57:57;;;;;;;;;;;;;;;;;;5014147;28;19995;-51
2022/03/01 12:00:26;;;;;;;;;;;;;;;;;;5017540;28;20295;-51
2022/03/01 12:02:51;;;;;;;;;;;;;;;;;;5018630;28;19929;-45
2022/03/01 12:05:16;;;;;;;;;;;;;;;;;;5017786;28;19921;-47
2022/03/01 12:07:41;;;;;;;;;;;;;;;;;;5016551;28;20372;-49
2022/03/01 12:10:06;;;;;;;;;;;;;;;;;;5013907;28;19956;-48
2022/03/01 12:12:32;;;;;;;;;;;;;;;;;;5016195;28;19909;-51
2022/03/01 12:14:58;;;;;;;;;;;;;;;;;;5014753;28;19940;-47
2022/03/01 12:17:23;;;;;;;;;;;;;;;;;;5017851;28;19913;-45
2022/03/01 12:19:48;;;;;;;;;;;;;;;;;;5015751;28;20415;-48
2022/03/01 12:22:13;;;;;;;;;;;;;;;;;;5016627;28;19909;-51
2022/03/01 12:24:38;;;;;;;;;;;;;;;;;;5014656;28;19921;-49
2022/03/01 12:27:03;;;;;;;;;;;;;;;;;;5020328;28;19909;-47
2022/03/01 12:29:29;;;;;;;;;;;;;;;;;;5012334;28;20369;-46
2022/03/01 12:31:54;;;;;;;;;;;;;;;;;;5016005;28;19932;-48
2022/03/01 12:34:19;;;;;;;;;;;;;;;;;;5015701;28;20392;-51
2022/03/01 12:36:45;;;;;;;;;;;;;;;;;;5015247;28;19913;-47
2022/03/01 12:39:11;;;;;;;;;;;;;;;;;;5015977;28;19909;-47
2022/03/01 12:41:36;;;;;;;;;;;;;;;;;;5019079;28;20000;-50
2022/03/01 12:44:02;;;;;;;;;;;;;;;;;;5018881;28;19920;-47
2022/03/01 12:46:27;;;;;;;;;;;;;;;;;;5019503;28;19920;-49
2022/03/01 12:48:52;;;;;;;;;;;;;;;;;;5014459;28;19913;-49
2022/03/01 12:51:17;;;;;;;;;;;;;;;;;;5013129;28;20367;-51
2022/03/01 12:53:43;;;;;;;;;;;;;;;;;;5014402;28;19913;-48
2022/03/01 12:56:08;;;;;;;;;;;;;;;;;;5014468;28;19913;-49
2022/03/01 12:58:33;;;;;;;;;;;;;;;;;;5013022;28;19910;-46
2022/03/01 13:00:59;;;;;;;;;;;;;;;;;;5015212;28;19925;-49
2022/03/01 13:03:24;;;;;;;;;;;;;;;;;;5016475;28;19959;-47
2022/03/01 13:05:49;;;;;;;;;;;;;;;;;;5039121;28;19917;-49
2022/03/01 13:08:14;;;;;;;;;;;;;;;;;;5020940;28;19992;-49
2022/03/01 13:10:39;;;;;;;;;;;;;;;;;;5018801;28;20281;-47
2022/03/01 13:13:04;;;;;;;;;;;;;;;;;;5017596;28;19920;-48
2022/03/01 13:15:29;;;;;;;;;;;;;;;;;;5020185;28;19940;-51
2022/03/01 13:17:55;;;;;;;;;;;;;;;;;;5018590;28;20779;-50
2022/03/01 13:20:21;;;;;;;;;;;;;;;;;;5017601;28;19947;-45
2022/03/01 13:22:46;;;;;;;;;;;;;;;;;;5017399;28;19928;-48
2022/03/01 13:25:11;;;;;;;;;;;;;;;;;;5019973;28;19913;-50
2022/03/01 13:27:37;;;;;;;;;;;;;;;;;;5020567;28;19916;-52
2022/03/01 13:30:02;;;;;;;;;;;;;;;;;;5018177;28;20071;-49
2022/03/01 13:32:27;;;;;;;;;;;;;;;;;;5021521;28;19921;-48
2022/03/01 13:34:52;;;;;;;;;;;;;;;;;;5015729;28;20000;-48
2022/03/01 13:37:17;;;;;;;;;;;;;;;;;;5017381;28;20385;-49
2022/03/01 13:39:42;;;;;;;;;;;;;;;;;;5015581;28;19959;-48
2022/03/01 13:42:08;;;;;;;;;;;;;;;;;;5017128;28;19914;-48
2022/03/01 13:44:33;;;;;;;;;;;;;;;;;;5017334;28;19917;-49
2022/03/01 13:46:58;;;;;;;;;;;;;;;;;;5017119;28;19937;-47
2022/03/01 13:49:23;;;;;;;;;;;;;;;;;;5019403;28;19987;-46
2022/03/01 13:51:48;;;;;;;;;;;;;;;;;;5018300;28;19933;-51
2022/03/01 13:54:13;;;;;;;;;;;;;;;;;;5017930;28;19982;-47
2022/03/01 13:56:39;;;;;;;;;;;;;;;;;;5017779;28;19917;-51
2022/03/01 13:59:04;;;;;;;;;;;;;;;;;;5018090;28;20400;-50
2022/03/01 14:01:29;;;;;;;;;;;;;;;;;;5018055;28;19920;-49
2022/03/01 14:03:54;;;;;;;;;;;;;;;;;;5018109;28;19917;-48
2022/03/01 14:06:20;;;;;;;;;;;;;;;;;;5018501;28;20231;-46
2022/03/01 14:08:45;;;;;;;;;;;;;;;;;;5018352;28;20004;-48
2022/03/01 14:11:10;;;;;;;;;;;;;;;;;;5020097;28;20054;-50
2022/03/01 14:13:35;;;;;;;;;;;;;;;;;;5017704;28;19956;-48
2022/03/01 14:16:00;;;;;;;;;;;;;;;;;;5017213;28;19910;-48
2022/03/01 14:18:25;;;;;;;;;;;;;;;;;;5016316;28;19914;-51
2022/03/01 14:20:51;;;;;;;;;;;;;;;;;;5018003;28;20431;-47
2022/03/01 14:23:17;;;;;;;;;;;;;;;;;;5018070;28;19963;-48
2022/03/01 14:25:42;;;;;;;;;;;;;;;;;;5018381;28;20388;-50
2022/03/01 14:28:07;;;;;;;;;;;;;;;;;;5014625;28;20451;-50
2022/03/01 14:30:32;;;;;;;;;;;;;;;;;;5020248;28;20008;-47
2022/03/01 14:33:00;;;;;;;;;;;;;;;;;;5016765;28;20415;-52
2022/03/01 14:35:25;;;;;;;;;;;;;;;;;;5019633;28;20003;-50
2022/03/01 14:37:50;;;;;;;;;;;;;;;;;;5016173;28;19995;-51
2022/03/01 14:40:15;;;;;;;;;;;;;;;;;;5015864;28;19931;-56
2022/03/01 14:42:41;;;;;;;;;;;;;;;;;;5016643;28;19924;-48
2022/03/01 14:45:06;;;;;;;;;;;;;;;;;;5016817;28;19909;-47
2022/03/01 14:47:31;;;;;;;;;;;;;;;;;;5013896;28;19913;-47
2022/03/01 14:49:56;;;;;;;;;;;;;;;;;;5016801;28;20432;-49
2022/03/01 14:52:21;;;;;;;;;;;;;;;;;;5017099;28;19929;-49
2022/03/01 14:54:47;;;;;;;;;;;;;;;;;;5017949;28;19920;-47
2022/03/01 14:57:12;;;;;;;;;;;;;;;;;;5018043;28;19922;-50
2022/03/01 14:59:37;;;;;;;;;;;;;;;;;;5020074;28;20527;-50
2022/03/01 15:02:02;;;;;;;;;;;;;;;;;;5016042;28;19956;-47
2022/03/01 15:04:27;;;;;;;;;;;;;;;;;;5019333;28;20581;-47
2022/03/01 15:06:52;;;;;;;;;;;;;;;;;;5016509;28;19913;-49
2022/03/01 15:09:18;;;;;;;;;;;;;;;;;;5023123;28;19917;-50
2022/03/01 15:11:43;;;;;;;;;;;;;;;;;;5018344;28;19933;-49
2022/03/01 15:14:08;;;;;;;;;;;;;;;;;;5021680;28;20493;-44
2022/03/01 15:16:33;;;;;;;;;;;;;;;;;;5015166;28;19909;-50
2022/03/01 15:18:58;;;;;;;;;;;;;;;;;;5014269;28;20000;-48
2022/03/01 15:21:23;;;;;;;;;;;;;;;;;;5015743;28;20375;-50
2022/03/01 15:23:48;;;;;;;;;;;;;;;;;;5015728;28;19985;-51
2022/03/01 15:26:14;;;;;;;;;;;;;;;;;;5016402;28;20004;-50
2022/03/01 15:28:39;;;;;;;;;;;;;;;;;;5016846;28;20497;-46
2022/03/01 15:31:04;;;;;;;;;;;;;;;;;;5017911;28;20004;-49
2022/03/01 15:33:29;;;;;;;;;;;;;;;;;;5017373;28;19939;-48
2022/03/01 15:35:54;;;;;;;;;;;;;;;;;;5016765;28;20365;-47
2022/03/01 15:38:20;;;;;;;;;;;;;;;;;;5015375;28;19910;-45
2022/03/01 15:40:45;;;;;;;;;;;;;;;;;;5016123;28;19963;-46
2022/03/01 15:43:10;;;;;;;;;;;;;;;;;;5018513;28;19917;-49
2022/03/01 15:45:35;;;;;;;;;;;;;;;;;;5015038;28;20261;-48
2022/03/01 15:48:03;;;;;;;;;;;;;;;;;;5017724;28;19960;-46
2022/03/01 15:50:29;;;;;;;;;;;;;;;;;;5019486;28;19955;-49
2022/03/01 15:52:54;;;;;;;;;;;;;;;;;;5015698;28;19960;-47
2022/03/01 15:55:19;;;;;;;;;;;;;;;;;;5016835;28;19932;-50
2022/03/01 15:57:44;;;;;;;;;;;;;;;;;;5016138;28;20003;-51
2022/03/01 16:00:10;;;;;;;;;;;;;;;;;;5016399;28;19913;-47
2022/03/01 16:08:03;;;;;;;;;;;;;;;;;;5015264;28;19921;-47
2022/03/01 16:10:28;;;;;;;;;;;;;;;;;;5014061;28;19929;-44
2022/03/01 16:12:54;;;;;;;;;;;;;;;;;;5015776;28;20433;-44
2022/03/01 16:15:19;;;;;;;;;;;;;;;;;;5011285;28;19918;-47
2022/03/01 16:17:44;;;;;;;;;;;;;;;;;;5013531;28;20023;-46
2022/03/01 16:20:09;;;;;;;;;;;;;;;;;;5012021;28;20384;-46
2022/03/01 16:22:34;;;;;;;;;;;;;;;;;;5016939;28;20491;-45
2022/03/01 16:25:00;;;;;;;;;;;;;;;;;;5012293;28;19921;-49
2022/03/01 16:27:25;;;;;;;;;;;;;;;;;;5016980;28;19921;-47
2022/03/01 16:29:50;;;;;;;;;;;;;;;;;;5012299;28;20483;-48
2022/03/01 16:32:15;;;;;;;;;;;;;;;;;;5016318;28;19913;-44
2022/03/01 16:34:40;;;;;;;;;;;;;;;;;;5009643;28;20324;-51
2022/03/01 16:37:05;;;;;;;;;;;;;;;;;;5012580;28;19980;-46